Time;durP1;ratioP1;P1;durP2;ratioP2;P2;SDS_P1;SDS_P2;PMS_P1;PMS_P2;Temp;Humidity;BMP_temperature;BMP_pressure;BME280_temperature;BME280_humidity;BME280_pressure;Samples;Min_cycle;Max_cycle;Signal;HPM_P1;HPM_P2
2022/11/11 00:00:27;;;;;;;669.10;602.92;;;;;;;;;;4989737;28;20433;-75
2022/11/11 00:02:54;;;;;;;665.38;599.33;;;;;;;;;;4991346;28;20488;-75
2022/11/11 00:05:20;;;;;;;665.92;599.75;;;;;;;;;;5007035;28;20435;-75
2022/11/11 00:07:47;;;;;;;664.13;598.17;;;;;;;;;;5008525;28;20443;-76
2022/11/11 00:10:13;;;;;;;661.20;595.30;;;;;;;;;;5011491;28;20425;-75
2022/11/11 00:12:39;;;;;;;660.22;594.30;;;;;;;;;;5010181;28;20431;-76
2022/11/11 00:15:05;;;;;;;664.13;598.10;;;;;;;;;;4990992;28;20441;-76
2022/11/11 00:25:52;;;;;;;664.33;598.22;;;;;;;;;;5005807;28;20993;-75
2022/11/11 00:28:18;;;;;;;669.80;603.50;;;;;;;;;;5010014;28;20446;-76
2022/11/11 00:30:44;;;;;;;666.13;599.90;;;;;;;;;;4988409;28;20774;-75
2022/11/11 00:33:10;;;;;;;664.08;597.97;;;;;;;;;;4988753;28;20441;-76
2022/11/11 00:35:54;;;;;;;664.13;597.92;;;;;;;;;;5007542;28;20442;-77
2022/11/11 00:41:05;;;;;;;658.45;592.45;;;;;;;;;;5009922;28;21474;-76
2022/11/11 00:43:31;;;;;;;664.90;598.70;;;;;;;;;;5009051;28;20825;-76
2022/11/11 00:50:57;;;;;;;661.95;595.78;;;;;;;;;;4990207;28;20460;-76
2022/11/11 00:51:28;;;;;;;657.50;591.60;;;;;;;;;;5008813;28;20524;-76
2022/11/11 00:53:55;;;;;;;657.45;591.58;;;;;;;;;;5008310;28;20474;-76
2022/11/11 00:56:21;;;;;;;658.97;593.05;;;;;;;;;;5008692;28;21732;-76
2022/11/11 08:16:20;;;;;;;627.60;562.65;;;;;;;;;;4979245;28;20442;-76
2022/11/11 08:18:46;;;;;;;625.67;560.77;;;;;;;;;;4989749;28;20439;-76
2022/11/11 08:21:12;;;;;;;626.42;561.45;;;;;;;;;;4973354;28;20943;-76
2022/11/11 08:23:38;;;;;;;630.60;565.40;;;;;;;;;;4973540;28;20886;-76
2022/11/11 08:26:06;;;;;;;627.30;562.40;;;;;;;;;;4974142;28;20902;-76
2022/11/11 08:28:33;;;;;;;626.92;561.92;;;;;;;;;;4992191;28;20428;-76
2022/11/11 08:31:00;;;;;;;622.80;557.90;;;;;;;;;;4995726;28;20451;-77
2022/11/11 08:33:26;;;;;;;625.63;560.72;;;;;;;;;;4973564;28;20526;-76
2022/11/11 08:35:53;;;;;;;628.95;563.95;;;;;;;;;;4972701;28;20436;-76
2022/11/11 08:38:19;;;;;;;626.17;561.05;;;;;;;;;;4972901;28;20519;-76
2022/11/11 08:40:45;;;;;;;626.45;561.55;;;;;;;;;;4972426;28;20439;-76
2022/11/11 08:43:11;;;;;;;626.22;561.22;;;;;;;;;;4976104;28;20812;-76
2022/11/11 08:45:38;;;;;;;632.03;566.92;;;;;;;;;;4974106;28;20829;-76
2022/11/11 08:48:04;;;;;;;629.85;564.75;;;;;;;;;;4973112;28;20417;-76
2022/11/11 08:50:30;;;;;;;625.05;560.13;;;;;;;;;;4972039;28;21134;-76
2022/11/11 08:52:56;;;;;;;632.30;567.15;;;;;;;;;;4971825;28;20511;-77
2022/11/11 08:55:22;;;;;;;632.45;567.28;;;;;;;;;;4973421;28;20443;-76
2022/11/11 08:57:56;;;;;;;632.63;567.53;;;;;;;;;;4971215;28;20437;-76
2022/11/11 09:00:22;;;;;;;631.70;566.50;;;;;;;;;;4990623;28;20807;-76
2022/11/11 09:02:48;;;;;;;628.15;563.05;;;;;;;;;;4972573;28;20428;-76
2022/11/11 09:05:14;;;;;;;626.35;561.45;;;;;;;;;;4972902;28;20421;-77
2022/11/11 09:07:41;;;;;;;628.80;563.80;;;;;;;;;;4971969;28;20531;-76
2022/11/11 09:10:07;;;;;;;629.72;564.72;;;;;;;;;;4973099;28;21348;-77
2022/11/11 09:12:33;;;;;;;628.35;563.35;;;;;;;;;;4972521;28;20534;-76
2022/11/11 09:15:00;;;;;;;632.22;567.10;;;;;;;;;;4972928;28;20439;-76
2022/11/11 09:17:26;;;;;;;631.83;566.72;;;;;;;;;;4971821;28;20480;-76
2022/11/11 09:19:52;;;;;;;630.50;565.50;;;;;;;;;;4974763;28;20436;-77
2022/11/11 09:22:18;;;;;;;626.63;561.72;;;;;;;;;;4971888;28;21086;-76
2022/11/11 09:24:45;;;;;;;631.07;565.90;;;;;;;;;;4991603;28;20506;-76
2022/11/11 09:27:11;;;;;;;628.78;563.72;;;;;;;;;;4955638;28;20943;-78
2022/11/11 09:29:37;;;;;;;624.30;559.47;;;;;;;;;;4972797;28;20435;-76
2022/11/11 09:32:03;;;;;;;622.38;557.58;;;;;;;;;;4971349;28;20445;-77
2022/11/11 09:34:29;;;;;;;621.13;556.33;;;;;;;;;;4972894;28;20436;-77
2022/11/11 09:36:55;;;;;;;624.72;559.78;;;;;;;;;;4992019;28;20421;-77
2022/11/11 09:39:21;;;;;;;622.28;557.38;;;;;;;;;;4973109;28;20507;-76
2022/11/11 09:41:59;;;;;;;627.70;562.70;;;;;;;;;;4991228;28;20443;-77
2022/11/11 09:44:28;;;;;;;626.63;561.72;;;;;;;;;;4972970;28;20448;-76
2022/11/11 09:47:13;;;;;;;623.70;558.90;;;;;;;;;;4972612;28;20437;-79
2022/11/11 09:49:42;;;;;;;620.85;556.15;;;;;;;;;;4991547;28;20923;-78
2022/11/11 09:52:19;;;;;;;624.20;559.30;;;;;;;;;;4991233;28;20429;-78
2022/11/11 09:54:45;;;;;;;619.85;555.08;;;;;;;;;;4991518;28;20437;-78
2022/11/11 09:57:16;;;;;;;625.13;560.22;;;;;;;;;;4972407;28;20566;-78
2022/11/11 09:59:49;;;;;;;620.58;555.70;;;;;;;;;;4972271;28;20429;-77
2022/11/11 10:02:22;;;;;;;620.78;555.97;;;;;;;;;;4972481;28;20847;-78
2022/11/11 10:04:51;;;;;;;625.33;560.35;;;;;;;;;;4971140;28;20788;-78
2022/11/11 10:07:43;;;;;;;619.25;554.55;;;;;;;;;;4972274;28;20428;-78
2022/11/11 10:10:22;;;;;;;619.97;555.25;;;;;;;;;;4967549;28;20431;-78
2022/11/11 10:12:56;;;;;;;623.53;558.63;;;;;;;;;;4991246;28;20428;-77
2022/11/11 10:15:24;;;;;;;622.28;557.30;;;;;;;;;;4970330;28;20429;-78
2022/11/11 10:18:05;;;;;;;621.97;557.17;;;;;;;;;;4969488;28;20504;-77
2022/11/11 10:20:33;;;;;;;622.75;557.95;;;;;;;;;;4985592;28;20831;-78
2022/11/11 10:23:16;;;;;;;630.10;565.05;;;;;;;;;;4969231;28;20500;-78
2022/11/11 10:26:05;;;;;;;624.92;559.85;;;;;;;;;;4969776;28;21719;-78
2022/11/11 10:28:36;;;;;;;627.70;562.80;;;;;;;;;;4965150;28;20426;-78
2022/11/11 10:31:04;;;;;;;631.08;565.88;;;;;;;;;;4969918;28;20789;-77
2022/11/11 10:33:33;;;;;;;622.17;557.35;;;;;;;;;;4982255;28;20442;-77
2022/11/11 10:36:01;;;;;;;625.92;561.03;;;;;;;;;;4965027;28;20438;-76
2022/11/11 10:38:38;;;;;;;629.70;564.60;;;;;;;;;;4964337;28;20430;-78
2022/11/11 10:41:27;;;;;;;627.80;562.85;;;;;;;;;;4967243;28;20446;-80
2022/11/11 10:43:53;;;;;;;631.70;566.50;;;;;;;;;;4956731;28;20441;-77
2022/11/11 10:46:25;;;;;;;633.78;568.58;;;;;;;;;;4967661;28;20433;-78
2022/11/11 10:49:00;;;;;;;634.33;569.13;;;;;;;;;;4965112;28;20844;-77
2022/11/11 10:51:46;;;;;;;635.47;570.20;;;;;;;;;;4983801;28;20498;-78
2022/11/11 10:54:16;;;;;;;630.33;565.33;;;;;;;;;;4955601;28;20586;-79
2022/11/11 10:56:47;;;;;;;634.70;569.53;;;;;;;;;;4983818;28;20442;-77
2022/11/11 10:59:30;;;;;;;637.85;572.55;;;;;;;;;;4969965;28;22093;-78
2022/11/11 11:02:00;;;;;;;643.25;577.70;;;;;;;;;;4967010;28;20444;-77
2022/11/11 11:04:31;;;;;;;639.13;573.83;;;;;;;;;;4965677;28;20446;-78
2022/11/11 11:06:59;;;;;;;635.58;570.28;;;;;;;;;;4983391;28;20437;-78
2022/11/11 11:09:25;;;;;;;636.25;571.00;;;;;;;;;;4969777;28;20457;-79
2022/11/11 11:11:59;;;;;;;635.40;570.20;;;;;;;;;;4968028;28;20509;-78
2022/11/11 11:14:30;;;;;;;636.90;571.65;;;;;;;;;;4967580;28;20729;-78
2022/11/11 11:16:59;;;;;;;635.65;570.35;;;;;;;;;;4982774;28;20450;-78
2022/11/11 11:19:26;;;;;;;638.10;572.80;;;;;;;;;;4967637;28;20999;-78
2022/11/11 11:21:57;;;;;;;633.72;568.70;;;;;;;;;;4970286;28;20788;-78
2022/11/11 11:24:26;;;;;;;640.60;575.20;;;;;;;;;;4967700;28;20541;-78
2022/11/11 11:26:53;;;;;;;639.92;574.53;;;;;;;;;;4966478;28;20449;-78
2022/11/11 11:29:27;;;;;;;637.72;572.55;;;;;;;;;;4966143;28;20582;-77
2022/11/11 11:31:53;;;;;;;643.15;577.67;;;;;;;;;;4965422;28;20470;-77
2022/11/11 11:34:19;;;;;;;644.28;578.78;;;;;;;;;;4967008;28;20464;-78
2022/11/11 11:36:58;;;;;;;641.55;576.30;;;;;;;;;;4988158;28;20442;-77
2022/11/11 11:39:32;;;;;;;641.53;576.13;;;;;;;;;;4966814;28;20967;-77
2022/11/11 11:41:58;;;;;;;648.35;582.70;;;;;;;;;;4962041;28;20445;-77
2022/11/11 11:44:25;;;;;;;645.10;579.60;;;;;;;;;;4966725;28;20426;-77
2022/11/11 11:46:52;;;;;;;651.75;586.05;;;;;;;;;;4968669;28;20430;-76
2022/11/11 11:49:34;;;;;;;643.85;578.35;;;;;;;;;;4968415;28;20426;-77
2022/11/11 11:52:12;;;;;;;648.80;583.13;;;;;;;;;;4967942;28;20580;-77
2022/11/11 11:54:50;;;;;;;645.15;579.75;;;;;;;;;;4968277;28;20430;-77
2022/11/11 11:57:43;;;;;;;642.38;577.17;;;;;;;;;;4968128;28;20957;-77
2022/11/11 12:00:12;;;;;;;651.90;586.28;;;;;;;;;;4970696;28;21018;-77
2022/11/11 12:02:38;;;;;;;651.90;586.20;;;;;;;;;;4971928;28;20418;-76
2022/11/11 12:05:04;;;;;;;650.05;584.55;;;;;;;;;;4986995;28;20532;-78
2022/11/11 12:07:35;;;;;;;646.97;581.47;;;;;;;;;;4971335;28;20442;-78
2022/11/11 12:10:20;;;;;;;653.28;587.58;;;;;;;;;;4971330;28;20426;-77
2022/11/11 12:12:58;;;;;;;655.08;589.35;;;;;;;;;;4971275;28;20418;-76
2022/11/11 12:15:30;;;;;;;647.75;582.35;;;;;;;;;;4973382;28;20509;-76
2022/11/11 12:17:56;;;;;;;650.33;584.72;;;;;;;;;;4957012;28;20444;-77
2022/11/11 12:20:49;;;;;;;650.22;584.63;;;;;;;;;;4956713;28;20424;-75
2022/11/11 12:23:38;;;;;;;654.97;589.30;;;;;;;;;;4957433;28;20427;-76
2022/11/11 12:26:09;;;;;;;646.07;580.67;;;;;;;;;;4955456;28;20432;-76
2022/11/11 12:28:35;;;;;;;650.00;584.58;;;;;;;;;;4955708;28;20424;-75
2022/11/11 12:31:17;;;;;;;647.60;582.20;;;;;;;;;;4939820;28;20669;-76
2022/11/11 12:33:49;;;;;;;652.40;586.88;;;;;;;;;;4954230;28;20432;-75
2022/11/11 12:36:19;;;;;;;653.60;588.10;;;;;;;;;;4954555;28;20424;-76
2022/11/11 12:38:54;;;;;;;652.08;586.58;;;;;;;;;;4976569;28;20475;-76
2022/11/11 12:41:20;;;;;;;655.85;590.15;;;;;;;;;;4960303;28;20438;-77
2022/11/11 12:44:04;;;;;;;650.35;584.95;;;;;;;;;;4976736;28;20462;-76
2022/11/11 12:46:40;;;;;;;652.95;587.40;;;;;;;;;;4954579;28;20552;-77
2022/11/11 12:49:25;;;;;;;655.43;589.73;;;;;;;;;;4955764;28;20500;-77
2022/11/11 12:51:54;;;;;;;650.88;585.40;;;;;;;;;;4954698;28;20526;-77
2022/11/11 12:54:20;;;;;;;645.58;580.17;;;;;;;;;;4954896;28;20428;-76
2022/11/11 12:57:04;;;;;;;649.40;583.85;;;;;;;;;;4975281;28;20463;-77
2022/11/11 12:59:49;;;;;;;651.30;585.70;;;;;;;;;;4955027;28;20428;-77
2022/11/11 13:02:15;;;;;;;648.75;583.33;;;;;;;;;;4956234;28;20444;-76
2022/11/11 13:04:41;;;;;;;652.40;586.80;;;;;;;;;;4954514;28;20448;-76
2022/11/11 13:07:13;;;;;;;654.27;588.57;;;;;;;;;;4954548;28;20423;-76
2022/11/11 13:09:39;;;;;;;651.50;585.80;;;;;;;;;;4952775;28;20441;-77
2022/11/11 13:12:11;;;;;;;649.92;584.38;;;;;;;;;;4972446;28;20448;-76
2022/11/11 13:14:37;;;;;;;645.53;580.22;;;;;;;;;;4954137;28;20444;-76
2022/11/11 13:17:08;;;;;;;649.63;584.22;;;;;;;;;;4966966;28;20434;-77
2022/11/11 13:19:45;;;;;;;643.13;577.72;;;;;;;;;;4967336;28;20439;-76
2022/11/11 13:22:23;;;;;;;650.22;584.72;;;;;;;;;;4969224;28;20434;-77
2022/11/11 13:24:50;;;;;;;647.35;581.83;;;;;;;;;;4972491;28;20442;-76
2022/11/11 13:27:19;;;;;;;648.40;582.85;;;;;;;;;;4972081;28;20465;-77
2022/11/11 13:29:51;;;;;;;652.10;586.40;;;;;;;;;;4969353;28;20430;-77
2022/11/11 13:32:19;;;;;;;644.83;579.25;;;;;;;;;;4966287;28;20937;-76
2022/11/11 13:34:45;;;;;;;642.03;576.63;;;;;;;;;;4970148;28;20429;-77
2022/11/11 13:37:20;;;;;;;648.88;583.40;;;;;;;;;;4970489;28;20509;-78
2022/11/11 13:39:48;;;;;;;648.58;583.00;;;;;;;;;;4971146;28;21017;-78
2022/11/11 13:42:20;;;;;;;643.85;578.50;;;;;;;;;;4985407;28;20458;-78
2022/11/11 13:44:46;;;;;;;642.15;576.85;;;;;;;;;;4970145;28;20496;-77
2022/11/11 13:47:18;;;;;;;643.03;577.73;;;;;;;;;;4969295;28;20828;-75
2022/11/11 13:49:52;;;;;;;640.92;575.72;;;;;;;;;;4967325;28;21457;-79
2022/11/11 13:52:26;;;;;;;646.17;580.78;;;;;;;;;;4969639;28;20437;-79
2022/11/11 13:54:59;;;;;;;643.80;578.40;;;;;;;;;;4969378;28;20426;-77
2022/11/11 13:57:28;;;;;;;640.65;575.45;;;;;;;;;;4971241;28;20430;-80
2022/11/11 13:59:59;;;;;;;646.73;581.23;;;;;;;;;;4969745;28;20548;-80
2022/11/11 14:02:27;;;;;;;644.15;578.85;;;;;;;;;;4985943;28;20434;-78
2022/11/11 14:05:04;;;;;;;644.83;579.45;;;;;;;;;;4968283;28;21288;-78
2022/11/11 14:07:46;;;;;;;650.22;584.63;;;;;;;;;;4970406;28;20431;-81
2022/11/11 14:10:18;;;;;;;643.38;578.10;;;;;;;;;;4969396;28;20473;-78
2022/11/11 14:12:48;;;;;;;648.40;582.90;;;;;;;;;;4986268;28;20833;-77
2022/11/11 14:15:33;;;;;;;645.45;579.97;;;;;;;;;;4968879;28;21990;-77
2022/11/11 14:17:59;;;;;;;644.60;579.30;;;;;;;;;;4968683;28;20601;-77
2022/11/11 14:20:41;;;;;;;642.38;577.08;;;;;;;;;;4968715;28;20465;-77
2022/11/11 14:23:20;;;;;;;640.75;575.45;;;;;;;;;;4986558;28;20935;-77
2022/11/11 14:25:50;;;;;;;644.33;578.92;;;;;;;;;;4970049;28;20508;-76
2022/11/11 14:28:29;;;;;;;649.30;583.80;;;;;;;;;;4968955;28;20837;-77
2022/11/11 14:30:58;;;;;;;641.90;576.67;;;;;;;;;;4968495;28;20949;-79
2022/11/11 14:33:35;;;;;;;646.42;580.92;;;;;;;;;;4969233;28;20441;-79
2022/11/11 14:36:32;;;;;;;641.63;576.35;;;;;;;;;;4970463;28;20944;-77
2022/11/11 14:39:17;;;;;;;645.08;579.67;;;;;;;;;;4967771;28;20430;-77
2022/11/11 14:41:47;;;;;;;640.38;575.08;;;;;;;;;;4983484;28;20446;-77
2022/11/11 14:44:28;;;;;;;642.60;577.22;;;;;;;;;;4967257;28;20543;-77
2022/11/11 14:47:07;;;;;;;647.28;581.70;;;;;;;;;;4984454;28;20837;-80
2022/11/11 14:49:49;;;;;;;642.25;576.95;;;;;;;;;;4968104;28;20534;-78
2022/11/11 14:52:34;;;;;;;642.33;577.03;;;;;;;;;;4968963;28;20448;-79
2022/11/11 14:55:06;;;;;;;636.92;571.75;;;;;;;;;;4966251;28;20480;-80
2022/11/11 14:57:40;;;;;;;643.17;577.90;;;;;;;;;;4967538;28;20430;-79
2022/11/11 15:00:25;;;;;;;639.65;574.35;;;;;;;;;;4985061;28;20442;-79
2022/11/11 15:02:51;;;;;;;639.25;574.03;;;;;;;;;;4970807;28;20493;-79
2022/11/11 15:05:20;;;;;;;640.60;575.40;;;;;;;;;;4968632;28;20450;-79
2022/11/11 15:07:49;;;;;;;642.70;577.40;;;;;;;;;;4968711;28;20805;-79
2022/11/11 15:10:22;;;;;;;636.05;570.95;;;;;;;;;;4968883;28;20517;-79
2022/11/11 15:12:57;;;;;;;639.20;574.00;;;;;;;;;;4967955;28;20531;-80
2022/11/11 15:15:48;;;;;;;638.78;573.58;;;;;;;;;;4984356;28;20591;-80
2022/11/11 15:18:40;;;;;;;642.50;576.90;;;;;;;;;;4968571;28;20458;-79
2022/11/11 15:21:06;;;;;;;643.28;577.88;;;;;;;;;;4967721;28;20438;-79
2022/11/11 15:23:41;;;;;;;640.67;575.45;;;;;;;;;;4984317;28;20451;-79
2022/11/11 15:26:15;;;;;;;636.97;571.67;;;;;;;;;;4983614;28;20631;-79
2022/11/11 15:29:04;;;;;;;641.72;576.42;;;;;;;;;;4971597;28;20468;-80
2022/11/11 15:31:33;;;;;;;641.22;575.95;;;;;;;;;;4971944;28;20476;-80
2022/11/11 15:34:25;;;;;;;635.27;570.10;;;;;;;;;;4990764;28;20808;-81
2022/11/11 15:37:02;;;;;;;633.03;567.93;;;;;;;;;;4990239;28;20858;-79
2022/11/11 15:39:40;;;;;;;641.65;576.30;;;;;;;;;;4971440;28;20430;-80
2022/11/11 15:42:10;;;;;;;637.13;571.70;;;;;;;;;;4989379;28;21923;-79
2022/11/11 15:44:36;;;;;;;635.42;570.33;;;;;;;;;;4974973;28;20457;-79
2022/11/11 15:47:03;;;;;;;643.90;578.47;;;;;;;;;;4972622;28;20434;-78
2022/11/11 15:49:39;;;;;;;636.72;571.63;;;;;;;;;;4973289;28;21071;-78
2022/11/11 15:52:20;;;;;;;641.47;576.13;;;;;;;;;;4973779;28;20629;-78
2022/11/11 15:54:47;;;;;;;641.75;576.40;;;;;;;;;;4974146;28;20426;-77
2022/11/11 15:57:16;;;;;;;639.72;574.28;;;;;;;;;;4974453;28;20434;-79
2022/11/11 15:59:42;;;;;;;640.40;575.05;;;;;;;;;;4972952;28;20923;-78
2022/11/11 16:02:16;;;;;;;642.65;577.15;;;;;;;;;;4970955;28;20437;-79
2022/11/11 16:04:46;;;;;;;644.83;579.33;;;;;;;;;;4973932;28;20438;-79
2022/11/11 16:07:20;;;;;;;644.58;579.25;;;;;;;;;;4990519;28;20426;-79
2022/11/11 16:09:46;;;;;;;646.35;580.85;;;;;;;;;;4989452;28;21080;-78
2022/11/11 16:12:13;;;;;;;648.70;583.00;;;;;;;;;;4972415;28;21043;-79
2022/11/11 16:14:43;;;;;;;637.30;572.00;;;;;;;;;;4972948;28;20452;-78
2022/11/11 16:17:10;;;;;;;635.83;570.72;;;;;;;;;;4977248;28;20712;-79
2022/11/11 16:19:38;;;;;;;641.97;576.55;;;;;;;;;;4973373;28;20446;-79
2022/11/11 16:22:07;;;;;;;646.97;581.47;;;;;;;;;;4973122;28;20703;-80
2022/11/11 16:24:35;;;;;;;639.95;574.65;;;;;;;;;;4973798;28;20442;-81
2022/11/11 16:27:05;;;;;;;643.95;578.53;;;;;;;;;;4973515;28;20450;-78
2022/11/11 16:29:40;;;;;;;639.15;573.95;;;;;;;;;;4973142;28;22036;-78
2022/11/11 16:32:24;;;;;;;643.63;578.22;;;;;;;;;;4972615;28;20549;-79
2022/11/11 16:34:52;;;;;;;636.42;571.33;;;;;;;;;;4990155;28;20453;-78
2022/11/11 16:37:18;;;;;;;643.25;577.85;;;;;;;;;;4973249;28;20454;-79
2022/11/11 16:39:45;;;;;;;640.22;575.00;;;;;;;;;;4972242;28;20449;-78
2022/11/11 16:42:30;;;;;;;636.38;571.28;;;;;;;;;;4966623;28;20784;-78
2022/11/11 16:44:58;;;;;;;644.20;578.88;;;;;;;;;;4969105;28;20434;-79
2022/11/11 16:47:33;;;;;;;635.25;570.15;;;;;;;;;;4970223;28;20461;-77
2022/11/11 16:50:06;;;;;;;639.47;574.22;;;;;;;;;;4971636;28;22169;-79
2022/11/11 16:52:51;;;;;;;633.58;568.58;;;;;;;;;;4970877;28;20446;-79
2022/11/11 16:55:24;;;;;;;636.97;571.78;;;;;;;;;;4970538;28;20509;-79
2022/11/11 16:57:50;;;;;;;635.72;570.53;;;;;;;;;;4967839;28;20480;-79
2022/11/11 17:00:18;;;;;;;641.03;575.83;;;;;;;;;;4970604;28;20434;-78
2022/11/11 17:02:44;;;;;;;632.25;567.25;;;;;;;;;;4970526;28;20446;-78
2022/11/11 17:05:11;;;;;;;640.95;575.85;;;;;;;;;;4969260;28;20434;-79
2022/11/11 17:07:38;;;;;;;639.35;574.15;;;;;;;;;;4968819;28;20453;-81
2022/11/11 17:10:07;;;;;;;635.88;570.67;;;;;;;;;;4985364;28;20445;-81
2022/11/11 17:12:37;;;;;;;637.97;572.78;;;;;;;;;;4969972;28;20442;-79
2022/11/11 17:15:04;;;;;;;638.83;573.53;;;;;;;;;;4970328;28;20465;-82
2022/11/11 17:17:30;;;;;;;631.05;566.15;;;;;;;;;;4969401;28;20450;-79
2022/11/11 17:19:57;;;;;;;635.83;570.63;;;;;;;;;;4967849;28;20984;-78
2022/11/11 17:22:23;;;;;;;643.40;578.00;;;;;;;;;;4981231;28;20558;-81
2022/11/11 17:24:49;;;;;;;631.55;566.65;;;;;;;;;;4967102;28;20560;-81
2022/11/11 17:27:15;;;;;;;633.92;568.90;;;;;;;;;;4977343;28;20434;-82
2022/11/11 17:29:41;;;;;;;633.83;568.70;;;;;;;;;;4969950;28;20446;-83
2022/11/11 17:32:07;;;;;;;632.25;567.25;;;;;;;;;;4967766;28;20466;-78
2022/11/11 17:34:33;;;;;;;636.00;570.90;;;;;;;;;;4967846;28;20445;-80
2022/11/11 17:36:59;;;;;;;636.15;571.00;;;;;;;;;;4967306;28;20438;-80
2022/11/11 17:39:25;;;;;;;636.33;571.13;;;;;;;;;;4970695;28;20876;-83
2022/11/11 17:41:51;;;;;;;636.53;571.35;;;;;;;;;;4968757;28;20434;-82
2022/11/11 17:44:17;;;;;;;631.88;566.80;;;;;;;;;;4967935;28;20434;-83
2022/11/11 17:46:43;;;;;;;634.35;569.17;;;;;;;;;;4965984;28;20433;-80
2022/11/11 17:49:09;;;;;;;636.47;571.30;;;;;;;;;;4965990;28;20835;-81
2022/11/11 17:51:36;;;;;;;630.88;565.88;;;;;;;;;;4968417;28;20436;-80
2022/11/11 17:54:02;;;;;;;638.72;573.45;;;;;;;;;;4969201;28;20732;-80
2022/11/11 17:56:28;;;;;;;635.33;570.22;;;;;;;;;;4990651;28;20793;-82
2022/11/11 17:58:54;;;;;;;631.72;566.72;;;;;;;;;;4964815;28;20833;-83
2022/11/11 18:01:21;;;;;;;640.45;575.03;;;;;;;;;;4953810;28;20444;-92
2022/11/11 18:03:47;;;;;;;636.88;571.80;;;;;;;;;;4970201;28;20434;-84
2022/11/11 18:06:13;;;;;;;630.45;565.55;;;;;;;;;;4973483;28;20426;-88
2022/11/11 18:08:39;;;;;;;637.42;572.33;;;;;;;;;;4966447;28;20877;-79
2022/11/11 18:11:08;;;;;;;629.38;564.38;;;;;;;;;;4968279;28;20555;-84
2022/11/11 18:13:34;;;;;;;631.03;566.15;;;;;;;;;;4967882;28;20450;-80
2022/11/11 18:16:01;;;;;;;633.42;568.42;;;;;;;;;;4967191;28;20449;-79
2022/11/11 18:18:28;;;;;;;637.60;572.40;;;;;;;;;;4987738;28;20517;-79
2022/11/11 18:20:54;;;;;;;635.97;570.78;;;;;;;;;;4988305;28;20483;-79
2022/11/11 18:23:20;;;;;;;641.10;575.80;;;;;;;;;;4970309;28;21195;-79
2022/11/11 18:25:46;;;;;;;636.33;571.13;;;;;;;;;;4988708;28;20530;-78
2022/11/11 18:28:12;;;;;;;638.15;572.95;;;;;;;;;;4989598;28;20840;-79
2022/11/11 18:30:38;;;;;;;645.00;579.67;;;;;;;;;;4989207;28;20459;-79
2022/11/11 18:33:04;;;;;;;646.17;580.67;;;;;;;;;;4987382;28;20432;-79
2022/11/11 18:35:30;;;;;;;643.63;578.22;;;;;;;;;;4989156;28;20428;-78
2022/11/11 18:37:56;;;;;;;647.10;581.58;;;;;;;;;;4987787;28;20425;-78
2022/11/11 18:40:22;;;;;;;642.60;577.20;;;;;;;;;;4988289;28;20455;-81
2022/11/11 18:42:48;;;;;;;641.72;576.35;;;;;;;;;;4987010;28;20525;-79
2022/11/11 18:45:14;;;;;;;640.47;575.28;;;;;;;;;;4968558;28;21085;-81
2022/11/11 18:47:40;;;;;;;649.25;583.67;;;;;;;;;;4970704;28;20516;-81
2022/11/11 18:50:06;;;;;;;639.70;574.60;;;;;;;;;;4975904;28;20476;-85
2022/11/11 18:52:32;;;;;;;633.45;568.38;;;;;;;;;;4956825;28;20429;-84
2022/11/11 18:54:59;;;;;;;641.10;575.78;;;;;;;;;;4966912;28;20887;-83
2022/11/11 18:57:25;;;;;;;635.70;570.58;;;;;;;;;;4969622;28;20536;-86
2022/11/11 18:59:51;;;;;;;636.33;571.27;;;;;;;;;;4952781;28;20428;-80
2022/11/11 19:02:17;;;;;;;634.55;569.38;;;;;;;;;;4987887;28;20436;-77
2022/11/11 19:04:43;;;;;;;636.72;571.22;;;;;;;;;;4981506;28;20547;-78
2022/11/11 19:07:09;;;;;;;626.10;561.20;;;;;;;;;;4988942;28;20783;-78
2022/11/11 19:09:35;;;;;;;623.42;558.72;;;;;;;;;;4987698;28;20437;-77
2022/11/11 19:12:01;;;;;;;623.13;558.33;;;;;;;;;;4986930;28;20428;-78
2022/11/11 19:14:27;;;;;;;619.33;554.63;;;;;;;;;;4968985;28;20447;-78
2022/11/11 19:16:53;;;;;;;617.08;552.38;;;;;;;;;;4987251;28;20432;-77
2022/11/11 19:19:19;;;;;;;613.55;548.95;;;;;;;;;;4967546;28;20436;-77
2022/11/11 19:21:45;;;;;;;613.92;549.35;;;;;;;;;;4968112;28;20445;-78
2022/11/11 19:24:14;;;;;;;617.95;553.05;;;;;;;;;;4966541;28;21132;-79
2022/11/11 19:26:42;;;;;;;608.95;544.45;;;;;;;;;;4967821;28;20457;-78
2022/11/11 19:29:09;;;;;;;606.03;541.63;;;;;;;;;;4970401;28;20515;-78
2022/11/11 19:31:35;;;;;;;607.90;543.40;;;;;;;;;;4969284;28;20441;-79
2022/11/11 19:34:02;;;;;;;597.88;533.58;;;;;;;;;;4956725;28;20432;-84
2022/11/11 19:36:29;;;;;;;598.42;534.10;;;;;;;;;;4952342;28;20563;-82
2022/11/11 19:38:57;;;;;;;598.88;534.58;;;;;;;;;;4966255;28;20930;-78
2022/11/11 19:41:24;;;;;;;590.72;526.72;;;;;;;;;;4988153;28;20432;-79
2022/11/11 19:43:52;;;;;;;596.45;532.25;;;;;;;;;;4989053;28;20420;-78
2022/11/11 19:46:20;;;;;;;585.17;521.17;;;;;;;;;;4988307;28;20520;-80
2022/11/11 19:48:46;;;;;;;590.67;526.38;;;;;;;;;;4986855;28;20760;-78
2022/11/11 19:51:17;;;;;;;591.70;527.40;;;;;;;;;;4987284;28;20460;-79
2022/11/11 19:53:43;;;;;;;583.67;519.63;;;;;;;;;;4987041;28;20439;-78
2022/11/11 19:56:11;;;;;;;585.45;521.42;;;;;;;;;;4985893;28;20503;-79
2022/11/11 19:58:38;;;;;;;586.70;522.50;;;;;;;;;;4987032;28;21025;-80
2022/11/11 20:01:11;;;;;;;583.67;519.47;;;;;;;;;;4985930;28;20494;-81
2022/11/11 20:03:38;;;;;;;577.80;513.90;;;;;;;;;;4988904;28;20528;-80
2022/11/11 20:06:04;;;;;;;575.83;511.85;;;;;;;;;;4986286;28;20647;-80
2022/11/11 20:08:31;;;;;;;577.88;513.97;;;;;;;;;;4989138;28;20439;-79
2022/11/11 20:11:03;;;;;;;574.25;510.35;;;;;;;;;;4987876;28;20491;-81
2022/11/11 20:13:29;;;;;;;574.85;511.13;;;;;;;;;;4969285;28;20475;-77
2022/11/11 20:15:55;;;;;;;574.97;507.30;;;;;;;;;;4973892;28;20535;-78
2022/11/11 20:18:21;;;;;;;577.20;511.48;;;;;;;;;;4992591;28;20436;-77
2022/11/11 20:20:47;;;;;;;572.63;502.02;;;;;;;;;;4970929;28;20789;-78
2022/11/11 20:23:13;;;;;;;573.42;499.75;;;;;;;;;;4992206;28;20420;-78
2022/11/11 20:25:39;;;;;;;575.15;501.85;;;;;;;;;;4990116;28;20785;-78
2022/11/11 20:28:05;;;;;;;574.53;501.67;;;;;;;;;;4991280;28;20428;-78
2022/11/11 20:30:31;;;;;;;572.47;496.33;;;;;;;;;;4972279;28;21322;-78
2022/11/11 20:32:57;;;;;;;571.33;489.13;;;;;;;;;;4973708;28;20455;-78
2022/11/11 20:35:23;;;;;;;571.78;488.38;;;;;;;;;;4990828;28;20467;-78
2022/11/11 20:37:50;;;;;;;570.37;486.27;;;;;;;;;;4992255;28;20613;-78
2022/11/11 20:40:16;;;;;;;570.40;486.42;;;;;;;;;;4971711;28;20863;-78
2022/11/11 20:42:42;;;;;;;571.08;483.52;;;;;;;;;;4971502;28;20727;-78
2022/11/11 20:45:08;;;;;;;569.47;482.52;;;;;;;;;;4971575;28;20448;-78
2022/11/11 20:47:34;;;;;;;571.40;480.42;;;;;;;;;;4967099;28;20447;-76
2022/11/11 20:50:00;;;;;;;567.72;470.33;;;;;;;;;;4970462;28;20425;-77
2022/11/11 20:52:26;;;;;;;567.72;474.95;;;;;;;;;;4971167;28;20479;-79
2022/11/11 20:54:52;;;;;;;568.13;472.42;;;;;;;;;;4970614;28;20502;-76
2022/11/11 20:57:18;;;;;;;567.78;469.45;;;;;;;;;;4971423;28;20471;-78
2022/11/11 20:59:44;;;;;;;568.65;472.73;;;;;;;;;;4987009;28;20531;-77
2022/11/11 21:02:11;;;;;;;567.42;468.83;;;;;;;;;;4970591;28;20448;-76
2022/11/11 21:04:37;;;;;;;567.10;467.35;;;;;;;;;;4990566;28;20432;-77
2022/11/11 21:07:03;;;;;;;567.15;465.77;;;;;;;;;;4971769;28;20807;-77
2022/11/11 21:09:29;;;;;;;568.85;472.33;;;;;;;;;;4970767;28;20440;-77
2022/11/11 21:11:55;;;;;;;566.63;463.30;;;;;;;;;;4970006;28;20796;-78
2022/11/11 21:14:21;;;;;;;568.15;465.00;;;;;;;;;;4971811;28;20434;-79
2022/11/11 21:16:47;;;;;;;567.17;463.15;;;;;;;;;;4969426;28;20519;-79
2022/11/11 21:19:13;;;;;;;567.60;463.48;;;;;;;;;;4970222;28;20451;-79
2022/11/11 21:21:41;;;;;;;567.45;465.30;;;;;;;;;;4972248;28;21175;-78
2022/11/11 21:24:07;;;;;;;568.15;467.40;;;;;;;;;;4971816;28;21008;-78
2022/11/11 21:26:34;;;;;;;566.75;461.00;;;;;;;;;;4969898;28;20499;-78
2022/11/11 21:29:01;;;;;;;565.33;458.42;;;;;;;;;;4969419;28;20761;-78
2022/11/11 21:31:32;;;;;;;568.15;461.17;;;;;;;;;;4971316;28;20447;-79
2022/11/11 21:33:58;;;;;;;568.42;462.98;;;;;;;;;;4989518;28;20444;-76
2022/11/11 21:36:25;;;;;;;566.45;459.23;;;;;;;;;;4966782;28;20436;-77
2022/11/11 21:38:51;;;;;;;566.03;458.90;;;;;;;;;;4986561;28;20585;-76